EDT,Max TemperatureF,Mean TemperatureF,Min TemperatureF,Max Dew PointF,MeanDew PointF,Min DewpointF,Max Humidity, Mean Humidity, Min Humidity, Max Sea Level PressureIn, Mean Sea Level PressureIn, Min Sea Level PressureIn, Max VisibilityMiles, Mean VisibilityMiles, Min VisibilityMiles, Max Wind SpeedMPH, Mean Wind SpeedMPH, Max Gust SpeedMPH,PrecipitationIn, CloudCover, Events, WindDirDegrees
2012-10-1,62,53,44,60,46,41,100,84,45,29.97,29.89,29.64,9,8,1,8,4,,0.47,1,Rain,2
2012-10-2,70,57,44,57,51,45,98,83,52,29.93,29.87,29.70,9,9,9,18,5,,0.00,7,Rain,49
2012-10-3,68,56,44,63,56,42,100,85,36,30.22,29.98,29.91,9,7,1,14,3,21,0.00,8,Rain,223
2012-10-4,73,52,31,55,52,33,97,71,47,30.29,30.07,29.99,9,9,9,15,8,23,0.12,3,,203
2012-10-5,59,53,46,59,50,41,96,79,55,30.05,29.99,29.90,9,9,9,13,8,22,0.02,7,Rain,253
2012-10-6,60,51,42,56,39,32,93,73,47,30.09,29.95,29.66,9,9,9,17,9,26,0.39,6,Rain,263
2012-10-7,54,46,39,46,34,25,96,67,37,30.13,30.07,29.73,9,9,8,13,7,,0.00,7,,292
2012-10-8,53,43,33,40,33,27,97,68,38,30.30,30.17,30.04,9,9,9,13,6,22,0.20,1,,220
2012-10-9,55,41,27,43,37,28,100,70,45,30.46,30.07,29.86,9,9,8,20,10,30,0.00,3,,188
2012-10-10,53,40,27,51,37,23,100,73,46,30.25,29.91,29.75,9,9,5,20,11,28,0.01,6,Rain,268
2012-10-11,60,46,33,43,31,24,93,71,34,30.19,30.12,29.44,9,9,9,25,10,38,0.94,2,Rain,243
2012-10-12,48,38,27,39,32,27,91,73,43,30.45,30.36,29.85,9,9,9,23,11,26,0.03,3,Rain,76
2012-10-13,57,43,29,57,35,19,100,82,27,30.44,30.24,29.88,9,9,5,20,8,29,0.00,4,Rain,159
2012-10-14,68,47,26,61,58,23,100,91,65,30.24,29.77,29.41,9,5,2,23,13,36,0.00,7,Rain,203
2012-10-15,50,43,36,57,45,35,97,79,71,30.01,29.68,29.39,9,9,5,26,17,43,0.24,8,Rain,283
2012-10-16,59,48,37,51,38,32,99,71,47,29.99,29.85,29.37,9,9,9,15,9,20,0.71,2,,237
2012-10-17,69,52,34,54,46,31,88,75,43,29.94,29.73,29.61,9,9,9,20,13,29,0.00,6,Rain,172
2012-10-18,59,43,27,54,47,29,98,72,37,30.18,29.60,29.46,9,9,5,24,12,36,0.00,6,Rain,176
2012-10-19,62,46,30,48,45,31,100,83,20,30.24,29.70,29.58,9,9,5,16,9,29,0.00,7,Rain,153
2012-10-20,58,50,42,57,46,43,100,92,82,30.09,29.69,29.60,9,8,3,13,8,21,0.67,8,Rain,250
2012-10-21,59,50,41,46,42,41,100,78,51,30.10,30.03,29.88,9,9,8,9,7,,0.00,1,,245
2012-10-22,69,54,39,54,48,38,100,80,56,30.12,30.04,29.56,9,8,4,13,6,17,0.00,3,Rain,177
2012-10-23,64,50,35,63,57,28,100,95,42,30.02,29.96,29.76,9,4,2,10,6,,0.00,8,Rain,124
2012-10-24,73,52,31,61,54,22,100,89,40,30.18,30.03,29.97,9,5,2,14,10,20,0.00,6,Rain,156
2012-10-25,75,48,22,55,49,23,88,68,29,30.33,30.00,29.87,9,9,9,22,11,31,0.00,0,,186
2012-10-26,55,42,28,55,44,26,93,79,23,30.27,30.12,29.85,9,9,5,20,12,26,0.00,7,Rain,332
2012-10-27,59,44,29,41,38,30,97,71,38,30.23,30.17,30.14,9,9,9,24,15,30,0.00,8,,20
2012-10-28,48,42,35,47,35,30,97,68,57,30.24,30.15,30.09,9,9,9,32,21,43,0.04,7,Rain,24
2012-10-29,52,46,41,50,40,37,100,91,81,30.18,29.91,29.62,9,7,3,45,31,60,0.04,8,Rain,10
2012-10-30,52,46,41,50,43,41,100,98,93,30.16,29.45,29.38,9,4,2,48,37,62,0.12,8,Rain,4
2012-10-31,55,48,41,54,44,39,100,97,87,29.97,29.48,29.40,9,6,2,25,18,32,0.55,8,Rain,340